Time;durP1;ratioP1;P1;durP2;ratioP2;P2;SDS_P1;SDS_P2;PMS_P1;PMS_P2;Temp;Humidity;BMP_temperature;BMP_pressure;BME280_temperature;BME280_humidity;BME280_pressure;Samples;Min_cycle;Max_cycle;Signal;HPM_P1;HPM_P2
2021/09/03 00:02:02;;;;;;;7.10;3.50;;;17.80;99.20;;;;;;4990931;28;20080;-75
2021/09/03 00:04:28;;;;;;;7.97;3.45;;;17.80;99.20;;;;;;4990281;28;20022;-75
2021/09/03 00:06:53;;;;;;;9.23;3.50;;;17.70;99.10;;;;;;5010011;28;20478;-75
2021/09/03 00:09:19;;;;;;;5.28;3.10;;;17.60;99.00;;;;;;5010157;28;20040;-75
2021/09/03 00:11:45;;;;;;;7.35;3.08;;;17.60;99.00;;;;;;4992731;28;20073;-75
2021/09/03 00:14:11;;;;;;;7.03;2.72;;;17.50;99.00;;;;;;4990542;28;20118;-75
2021/09/03 00:16:37;;;;;;;6.78;3.30;;;17.50;98.90;;;;;;4989639;28;20041;-75
2021/09/03 00:19:07;;;;;;;5.00;2.90;;;17.50;98.80;;;;;;4990501;28;20038;-75
2021/09/03 00:21:33;;;;;;;6.47;3.50;;;17.40;99.20;;;;;;4989684;28;20038;-75
2021/09/03 00:23:59;;;;;;;6.18;3.35;;;17.30;99.50;;;;;;4990147;28;20035;-75
2021/09/03 00:26:24;;;;;;;6.35;3.50;;;17.30;99.50;;;;;;4989488;28;20042;-76
2021/09/03 00:28:50;;;;;;;5.85;3.63;;;17.30;99.50;;;;;;4990971;28;20034;-75
2021/09/03 00:31:16;;;;;;;12.85;4.55;;;17.20;99.80;;;;;;4989128;28;20034;-75
2021/09/03 00:33:41;;;;;;;9.40;4.55;;;17.00;99.90;;;;;;4989909;28;20380;-75
2021/09/03 00:36:07;;;;;;;8.68;4.28;;;17.00;99.90;;;;;;4993520;28;20472;-75
2021/09/03 00:38:33;;;;;;;8.48;4.40;;;17.10;99.90;;;;;;5006982;28;20042;-76
2021/09/03 00:40:59;;;;;;;8.88;4.88;;;17.10;99.90;;;;;;4989628;28;20395;-75
2021/09/03 00:43:28;;;;;;;10.27;4.55;;;17.10;99.90;;;;;;4990423;28;20043;-75
2021/09/03 00:45:54;;;;;;;12.05;4.72;;;17.20;99.90;;;;;;4976882;28;20038;-75
2021/09/03 00:48:19;;;;;;;9.98;4.95;;;17.20;99.90;;;;;;4988629;28;20029;-75
2021/09/03 00:50:45;;;;;;;8.45;5.00;;;17.20;99.90;;;;;;4989319;28;20122;-75
2021/09/03 00:53:11;;;;;;;10.82;6.07;;;17.10;99.90;;;;;;4997850;28;20136;-75
2021/09/03 00:55:36;;;;;;;11.32;5.72;;;17.10;99.90;;;;;;5009297;28;20038;-75
2021/09/03 00:58:02;;;;;;;9.75;5.72;;;17.20;99.90;;;;;;5009206;28;20041;-75
2021/09/03 01:00:28;;;;;;;11.65;6.05;;;17.10;99.90;;;;;;5009113;28;20037;-75
2021/09/03 01:02:53;;;;;;;15.02;6.60;;;17.00;99.90;;;;;;5008814;28;20407;-75
2021/09/03 01:05:22;;;;;;;16.98;6.90;;;17.00;99.90;;;;;;5009292;28;20081;-75
2021/09/03 01:07:52;;;;;;;15.52;7.65;;;17.00;99.90;;;;;;5009193;28;20034;-75
2021/09/03 01:10:22;;;;;;;13.95;7.22;;;17.10;99.90;;;;;;5009676;28;20030;-75
2021/09/03 01:12:49;;;;;;;13.35;7.20;;;16.80;99.90;;;;;;5028595;23;20457;-75
2021/09/03 01:15:15;;;;;;;12.98;6.72;;;16.80;99.90;;;;;;5028838;28;20455;-75
2021/09/03 01:17:41;;;;;;;14.23;6.45;;;16.90;99.90;;;;;;5033142;28;20728;-75
2021/09/03 01:20:08;;;;;;;14.00;7.25;;;16.90;99.90;;;;;;5049137;28;20035;-75
2021/09/03 01:22:34;;;;;;;13.73;6.85;;;16.90;99.90;;;;;;5045809;28;20399;-75
2021/09/03 01:25:00;;;;;;;11.55;6.90;;;17.00;99.90;;;;;;5028794;28;20029;-75
2021/09/03 01:27:26;;;;;;;12.43;6.53;;;17.00;99.90;;;;;;5028909;28;20033;-75
2021/09/03 01:29:52;;;;;;;11.30;6.00;;;17.00;99.90;;;;;;5048066;28;20063;-75
2021/09/03 01:32:17;;;;;;;11.55;5.60;;;17.00;99.90;;;;;;5039976;28;20378;-75
2021/09/03 01:34:43;;;;;;;12.77;5.60;;;16.90;99.90;;;;;;5045676;28;20044;-75
2021/09/03 01:37:09;;;;;;;9.20;4.82;;;16.90;99.90;;;;;;5048654;28;20428;-75
2021/09/03 01:39:35;;;;;;;8.75;4.53;;;16.80;99.90;;;;;;5037482;28;20508;-75
2021/09/03 01:42:01;;;;;;;10.02;4.55;;;16.80;99.90;;;;;;5048488;28;20041;-75
2021/09/03 01:44:27;;;;;;;9.07;4.00;;;16.80;99.90;;;;;;5033290;28;20037;-75
2021/09/03 01:46:53;;;;;;;6.57;3.65;;;16.80;99.90;;;;;;5032794;28;20021;-75
2021/09/03 01:49:19;;;;;;;6.30;3.40;;;16.80;99.90;;;;;;5053300;28;20049;-76
2021/09/03 01:51:44;;;;;;;6.13;3.33;;;16.70;99.90;;;;;;5053571;28;20071;-75
2021/09/03 01:54:10;;;;;;;7.95;4.13;;;16.80;99.90;;;;;;5035998;28;20530;-75
2021/09/03 01:56:35;;;;;;;8.20;4.00;;;16.80;99.90;;;;;;5013438;28;20113;-75
2021/09/03 01:59:01;;;;;;;8.55;4.38;;;16.80;99.90;;;;;;5016592;28;20045;-75
2021/09/03 02:01:27;;;;;;;5.90;3.47;;;16.70;99.90;;;;;;5051971;28;20033;-75
2021/09/03 02:03:54;;;;;;;6.55;3.58;;;16.60;99.90;;;;;;5052195;28;20106;-75
2021/09/03 02:06:20;;;;;;;9.48;3.60;;;16.70;99.90;;;;;;5012626;28;20029;-75
2021/09/03 02:08:45;;;;;;;6.78;3.85;;;16.70;99.90;;;;;;5012414;28;20387;-75
2021/09/03 02:11:11;;;;;;;6.15;3.85;;;16.70;99.90;;;;;;5046616;28;20028;-76
2021/09/03 02:13:37;;;;;;;8.02;4.25;;;16.40;99.90;;;;;;5064778;28;20063;-75
2021/09/03 02:16:03;;;;;;;8.15;4.07;;;16.40;99.90;;;;;;5056357;28;20474;-75
2021/09/03 02:18:28;;;;;;;10.13;4.25;;;16.40;99.90;;;;;;5051552;28;20040;-75
2021/09/03 02:20:54;;;;;;;10.50;3.97;;;16.50;99.90;;;;;;5039158;28;20033;-75
2021/09/03 02:23:20;;;;;;;7.53;4.00;;;16.50;99.90;;;;;;5032088;28;20726;-75
2021/09/03 02:25:45;;;;;;;7.55;3.63;;;16.50;99.90;;;;;;5040375;28;20036;-75
2021/09/03 02:28:14;;;;;;;6.95;4.32;;;16.40;99.90;;;;;;5052175;28;20059;-75
2021/09/03 02:30:40;;;;;;;6.97;3.95;;;16.40;99.90;;;;;;5051049;28;20044;-75
2021/09/03 02:33:05;;;;;;;8.00;4.47;;;16.50;99.90;;;;;;5052123;28;20118;-74
2021/09/03 02:35:31;;;;;;;7.43;3.97;;;16.40;99.90;;;;;;5050852;28;20794;-75
2021/09/03 02:37:57;;;;;;;7.18;3.92;;;16.40;99.90;;;;;;5052150;28;20044;-75
2021/09/03 02:40:26;;;;;;;6.10;3.80;;;16.30;99.90;;;;;;5049655;28;20025;-75
2021/09/03 02:42:52;;;;;;;10.18;4.50;;;16.20;99.90;;;;;;5037281;28;20048;-75
2021/09/03 02:45:18;;;;;;;6.93;3.53;;;16.10;99.90;;;;;;5043137;28;20021;-75
2021/09/03 02:47:43;;;;;;;7.07;4.22;;;16.10;99.90;;;;;;5046307;28;20045;-75
2021/09/03 02:50:10;;;;;;;6.75;4.43;;;16.00;99.90;;;;;;5031647;28;20029;-75
2021/09/03 02:52:35;;;;;;;7.80;3.92;;;16.00;99.90;;;;;;5031268;28;20111;-75
2021/09/03 02:55:02;;;;;;;7.30;4.03;;;16.00;99.90;;;;;;5031590;28;20601;-75
2021/09/03 02:57:27;;;;;;;8.20;3.78;;;16.10;99.90;;;;;;5044572;28;20116;-75
2021/09/03 02:59:53;;;;;;;10.68;3.95;;;16.10;99.90;;;;;;5051018;28;20146;-75
2021/09/03 03:02:19;;;;;;;7.40;3.88;;;16.20;99.90;;;;;;5050058;28;20059;-75
2021/09/03 03:04:44;;;;;;;9.45;4.57;;;16.20;99.90;;;;;;5051706;28;20036;-75
2021/09/03 03:07:10;;;;;;;9.52;4.40;;;16.20;99.90;;;;;;5042454;28;20037;-75
2021/09/03 03:09:35;;;;;;;9.38;4.00;;;16.20;99.90;;;;;;5031243;28;20033;-75
2021/09/03 03:12:02;;;;;;;8.85;4.32;;;16.30;99.90;;;;;;5036273;28;20037;-75
2021/09/03 03:14:29;;;;;;;9.32;4.47;;;16.20;99.90;;;;;;5050725;28;20060;-75
2021/09/03 03:16:57;;;;;;;10.27;4.82;;;16.30;99.90;;;;;;5036272;28;20039;-75
2021/09/03 03:19:23;;;;;;;11.13;4.85;;;16.20;99.90;;;;;;5041980;28;20930;-75
2021/09/03 03:21:49;;;;;;;11.98;4.70;;;16.20;99.90;;;;;;5050912;28;20475;-75
2021/09/03 03:24:16;;;;;;;7.32;4.05;;;16.20;99.90;;;;;;5043289;28;20033;-75
2021/09/03 03:26:41;;;;;;;8.35;4.00;;;16.10;99.90;;;;;;5050180;28;20056;-75
2021/09/03 03:29:07;;;;;;;8.50;4.10;;;16.00;99.90;;;;;;5049255;28;20102;-75
2021/09/03 03:31:33;;;;;;;7.82;4.05;;;16.00;99.90;;;;;;5049777;28;21034;-75
2021/09/03 03:33:59;;;;;;;8.85;4.55;;;16.00;99.90;;;;;;5049529;28;20069;-75
2021/09/03 03:36:25;;;;;;;8.13;4.15;;;16.10;99.90;;;;;;5050414;28;20048;-75
2021/09/03 03:38:50;;;;;;;9.32;3.92;;;16.20;99.90;;;;;;5051499;28;20033;-75
2021/09/03 03:41:16;;;;;;;6.35;4.35;;;16.20;99.90;;;;;;5053843;28;20478;-75
2021/09/03 03:43:42;;;;;;;6.43;3.30;;;16.20;99.90;;;;;;5050392;28;20033;-75
2021/09/03 03:46:08;;;;;;;7.72;3.67;;;16.20;99.90;;;;;;5056958;28;20055;-75
2021/09/03 03:48:33;;;;;;;8.57;4.35;;;16.10;99.90;;;;;;5069715;28;20029;-76
2021/09/03 03:50:59;;;;;;;7.13;4.40;;;16.10;99.90;;;;;;5066195;28;20818;-75
2021/09/03 03:53:25;;;;;;;8.20;4.53;;;16.10;99.90;;;;;;5069948;28;20037;-75
2021/09/03 03:55:51;;;;;;;6.07;4.13;;;16.10;99.90;;;;;;5045316;28;20029;-75
2021/09/03 03:58:19;;;;;;;8.55;4.28;;;16.10;99.90;;;;;;5030189;28;20112;-75
2021/09/03 04:00:45;;;;;;;10.73;4.65;;;16.10;99.90;;;;;;5038899;28;20033;-75
2021/09/03 04:03:11;;;;;;;11.38;4.72;;;15.90;99.90;;;;;;5049541;28;20028;-75
2021/09/03 04:05:37;;;;;;;8.57;4.63;;;15.90;99.90;;;;;;5048889;28;20017;-75
2021/09/03 04:08:03;;;;;;;8.43;4.22;;;15.90;99.90;;;;;;5029228;28;20382;-75
2021/09/03 04:10:28;;;;;;;8.50;4.50;;;15.90;99.90;;;;;;5029483;28;20029;-75
2021/09/03 04:12:54;;;;;;;8.63;4.35;;;15.90;99.90;;;;;;5046040;28;20315;-75
2021/09/03 04:15:19;;;;;;;7.97;4.35;;;15.70;99.90;;;;;;5048709;28;20033;-75
2021/09/03 04:17:45;;;;;;;8.00;4.07;;;15.80;99.90;;;;;;5048327;28;20896;-76
2021/09/03 04:20:11;;;;;;;10.98;4.30;;;15.80;99.90;;;;;;5048317;28;20035;-75
2021/09/03 04:22:37;;;;;;;7.22;4.22;;;15.80;99.90;;;;;;5045736;28;20037;-75
2021/09/03 04:25:04;;;;;;;8.65;4.38;;;15.70;99.90;;;;;;5044380;28;20373;-75
2021/09/03 04:27:30;;;;;;;6.88;4.22;;;15.70;99.90;;;;;;5048812;28;20039;-75
2021/09/03 04:29:56;;;;;;;5.97;3.70;;;15.70;99.90;;;;;;5047766;28;20028;-75
2021/09/03 04:32:21;;;;;;;9.13;4.75;;;15.70;99.90;;;;;;5048128;28;20083;-75
2021/09/03 04:34:47;;;;;;;8.05;4.03;;;15.70;99.90;;;;;;5047876;28;20039;-75
2021/09/03 04:37:13;;;;;;;7.47;4.35;;;15.70;99.90;;;;;;5048266;28;20066;-75
2021/09/03 04:39:39;;;;;;;6.43;3.47;;;15.80;99.90;;;;;;5050733;28;20024;-75
2021/09/03 04:42:05;;;;;;;7.07;4.18;;;15.80;99.90;;;;;;5061759;28;20079;-75
2021/09/03 04:44:30;;;;;;;7.90;4.20;;;15.80;99.90;;;;;;5037160;28;20037;-74
2021/09/03 04:46:56;;;;;;;8.48;4.68;;;15.90;99.90;;;;;;5042344;28;20071;-75
2021/09/03 04:49:22;;;;;;;7.75;4.15;;;15.90;99.90;;;;;;5048714;28;20065;-75
2021/09/03 04:51:48;;;;;;;8.77;4.57;;;15.80;99.90;;;;;;5039927;28;20021;-76
2021/09/03 04:54:13;;;;;;;9.27;4.45;;;15.70;99.90;;;;;;5047285;28;20037;-75
2021/09/03 04:56:40;;;;;;;8.18;4.25;;;15.70;99.90;;;;;;5048294;28;20624;-75
2021/09/03 04:59:06;;;;;;;8.93;4.28;;;15.70;99.90;;;;;;5047411;28;20645;-75
2021/09/03 05:01:31;;;;;;;6.35;4.28;;;15.70;99.90;;;;;;5055962;28;20025;-75
2021/09/03 05:03:57;;;;;;;10.07;4.25;;;15.70;99.90;;;;;;5060047;28;20049;-75
2021/09/03 05:06:23;;;;;;;8.55;4.30;;;15.90;99.90;;;;;;5068026;28;20025;-75
2021/09/03 05:08:48;;;;;;;7.60;4.53;;;15.90;99.90;;;;;;5057333;28;20117;-75
2021/09/03 05:11:14;;;;;;;7.85;4.43;;;15.90;99.90;;;;;;5047979;28;20021;-75
2021/09/03 05:13:40;;;;;;;11.13;4.75;;;16.00;99.90;;;;;;5007463;28;1157373;-75
2021/09/03 05:16:05;;;;;;;8.30;4.47;;;16.00;99.90;;;;;;5048586;28;20037;-75
2021/09/03 05:18:31;;;;;;;9.38;4.68;;;16.00;99.90;;;;;;5029395;28;20040;-74
2021/09/03 05:20:57;;;;;;;10.18;4.47;;;16.00;99.90;;;;;;5038764;28;20029;-75
2021/09/03 05:23:23;;;;;;;8.88;4.90;;;16.00;99.90;;;;;;5051754;28;20691;-75
2021/09/03 05:25:48;;;;;;;10.07;5.18;;;16.00;99.90;;;;;;5053077;28;20037;-75
2021/09/03 05:28:14;;;;;;;12.98;5.22;;;16.10;99.90;;;;;;5052733;28;20052;-75
2021/09/03 05:30:40;;;;;;;8.68;4.60;;;16.20;99.90;;;;;;5050466;28;20029;-75
2021/09/03 05:33:05;;;;;;;12.60;5.07;;;16.10;99.90;;;;;;5052717;28;20029;-75
2021/09/03 05:35:31;;;;;;;14.07;5.40;;;16.30;99.90;;;;;;5052055;28;20671;-75
2021/09/03 05:37:57;;;;;;;27.00;6.45;;;16.20;99.90;;;;;;5038605;28;20025;-75
2021/09/03 05:40:23;;;;;;;17.73;6.03;;;16.20;99.90;;;;;;5048217;28;20454;-75
2021/09/03 05:42:49;;;;;;;17.33;5.55;;;16.20;99.90;;;;;;5051903;28;20033;-73
2021/09/03 05:45:15;;;;;;;16.35;7.15;;;16.30;99.90;;;;;;5048893;28;20033;-75
2021/09/03 05:47:42;;;;;;;10.77;6.55;;;16.30;99.90;;;;;;5048932;28;20406;-75
2021/09/03 05:50:09;;;;;;;17.73;7.18;;;16.40;99.90;;;;;;5044845;28;20168;-75
2021/09/03 05:52:34;;;;;;;16.63;6.80;;;16.50;99.90;;;;;;5046103;28;20497;-75
2021/09/03 05:55:00;;;;;;;15.00;6.57;;;16.50;99.90;;;;;;5052042;28;20033;-75
2021/09/03 05:57:26;;;;;;;11.32;5.88;;;16.40;99.90;;;;;;5051235;28;20134;-75
2021/09/03 05:59:51;;;;;;;15.18;6.13;;;16.50;99.90;;;;;;5052112;28;20033;-75
2021/09/03 06:02:17;;;;;;;11.40;6.15;;;16.60;99.90;;;;;;5051437;28;20098;-75
2021/09/03 06:04:43;;;;;;;18.90;6.78;;;16.50;99.90;;;;;;5048163;28;20078;-74
2021/09/03 06:07:08;;;;;;;12.98;6.20;;;16.50;99.90;;;;;;5050986;28;20025;-75
2021/09/03 06:09:34;;;;;;;12.65;6.32;;;16.60;99.90;;;;;;5051580;28;20044;-75
2021/09/03 06:12:00;;;;;;;15.65;6.95;;;16.70;99.90;;;;;;5051003;28;20509;-75
2021/09/03 06:14:26;;;;;;;10.25;6.00;;;16.60;99.90;;;;;;5045864;28;20064;-75
2021/09/03 06:16:51;;;;;;;10.20;6.15;;;16.50;99.90;;;;;;5050412;28;20033;-75
2021/09/03 06:19:17;;;;;;;12.40;5.97;;;16.60;99.90;;;;;;5046741;28;20083;-75
2021/09/03 06:21:43;;;;;;;14.85;6.90;;;16.70;99.90;;;;;;5051475;28;20804;-75
2021/09/03 06:24:28;;;;;;;12.35;7.93;;;16.70;99.90;;;;;;5041492;28;20045;-74
2021/09/03 06:27:08;;;;;;;18.88;8.27;;;16.70;99.90;;;;;;5031961;28;20112;-75
2021/09/03 06:29:43;;;;;;;9.85;7.47;;;16.60;99.90;;;;;;5035478;28;20033;-75
2021/09/03 06:32:19;;;;;;;13.30;8.82;;;16.60;99.90;;;;;;5036080;28;20044;-74
2021/09/03 06:34:46;;;;;;;14.73;9.40;;;16.60;99.90;;;;;;5048435;28;20095;-74
2021/09/03 06:37:13;;;;;;;13.95;8.18;;;16.70;99.90;;;;;;5044496;28;20043;-74
2021/09/03 06:39:39;;;;;;;15.52;8.02;;;16.80;99.90;;;;;;5040952;28;20097;-77
2021/09/03 06:42:06;;;;;;;12.40;7.70;;;16.90;99.90;;;;;;5046503;28;20116;-75
2021/09/03 06:44:32;;;;;;;12.23;7.00;;;17.00;99.90;;;;;;5039999;28;20033;-75
2021/09/03 06:46:58;;;;;;;17.25;8.68;;;17.10;99.90;;;;;;5042959;28;20617;-75
2021/09/03 06:49:24;;;;;;;14.88;7.82;;;17.20;99.90;;;;;;5034974;28;20040;-75
2021/09/03 06:51:50;;;;;;;15.77;8.35;;;17.20;99.90;;;;;;5034564;28;20378;-75
2021/09/03 06:54:16;;;;;;;14.18;7.35;;;17.20;99.90;;;;;;5037644;28;20033;-75
2021/09/03 06:56:42;;;;;;;23.95;8.40;;;17.30;99.90;;;;;;5040056;28;20040;-75
2021/09/03 06:59:08;;;;;;;14.55;7.60;;;17.40;99.90;;;;;;5046839;28;20033;-75
2021/09/03 07:01:33;;;;;;;12.52;7.00;;;17.40;99.90;;;;;;5049242;28;20033;-75
2021/09/03 07:03:59;;;;;;;16.95;6.10;;;17.60;99.90;;;;;;5049695;28;20095;-75
2021/09/03 07:06:25;;;;;;;11.88;5.95;;;17.60;99.90;;;;;;5050186;28;20037;-75
2021/09/03 07:08:50;;;;;;;11.60;6.00;;;17.70;99.90;;;;;;5049993;28;20094;-75
2021/09/03 07:11:16;;;;;;;11.70;5.60;;;17.70;99.90;;;;;;5042984;28;20116;-75
2021/09/03 07:13:42;;;;;;;10.75;6.05;;;17.70;99.90;;;;;;5038505;28;20053;-75
2021/09/03 07:16:08;;;;;;;13.45;6.32;;;17.60;99.90;;;;;;5038821;28;20030;-75
2021/09/03 07:18:33;;;;;;;12.60;5.72;;;17.70;99.90;;;;;;5045773;28;20356;-75
2021/09/03 07:20:59;;;;;;;14.15;7.53;;;17.70;99.90;;;;;;5042431;28;20040;-75
2021/09/03 07:23:25;;;;;;;12.77;8.25;;;17.80;99.90;;;;;;5045613;28;20067;-75
2021/09/03 07:25:50;;;;;;;15.80;7.93;;;17.80;99.90;;;;;;5047688;28;20352;-76
2021/09/03 07:28:16;;;;;;;15.30;10.10;;;17.80;99.90;;;;;;5035242;28;20041;-76
2021/09/03 07:30:42;;;;;;;22.48;16.15;;;17.90;99.90;;;;;;5041870;28;20548;-75
2021/09/03 07:33:08;;;;;;;23.63;15.05;;;17.90;99.90;;;;;;5040777;28;20674;-76
2021/09/03 07:35:34;;;;;;;20.98;15.50;;;17.80;99.90;;;;;;5047526;28;20037;-75
2021/09/03 07:38:00;;;;;;;20.40;13.40;;;17.90;99.90;;;;;;5051069;28;20028;-76
2021/09/03 07:40:27;;;;;;;24.13;13.30;;;17.90;99.90;;;;;;5045600;28;20037;-76
2021/09/03 07:42:53;;;;;;;15.90;11.88;;;18.10;99.90;;;;;;5036474;28;20119;-76
2021/09/03 07:45:19;;;;;;;16.88;11.88;;;18.20;99.90;;;;;;5049180;28;20028;-76
2021/09/03 07:47:44;;;;;;;15.73;11.13;;;18.20;99.90;;;;;;5049884;28;20379;-76
2021/09/03 07:50:10;;;;;;;17.25;11.15;;;18.10;99.90;;;;;;5047293;28;20053;-76
2021/09/03 07:52:36;;;;;;;15.38;9.75;;;18.10;99.90;;;;;;5047829;28;20034;-76
2021/09/03 07:55:03;;;;;;;14.65;8.82;;;18.10;99.90;;;;;;5041509;28;20041;-76
2021/09/03 07:57:28;;;;;;;12.68;9.32;;;18.20;99.90;;;;;;5047440;28;20048;-76
2021/09/03 07:59:54;;;;;;;20.92;8.82;;;18.20;99.90;;;;;;5037908;28;20394;-76
2021/09/03 08:02:20;;;;;;;13.73;7.80;;;18.20;99.90;;;;;;5049311;28;20033;-75
2021/09/03 08:04:45;;;;;;;15.48;8.00;;;18.20;99.90;;;;;;5043901;28;20044;-76
2021/09/03 08:07:11;;;;;;;15.20;8.18;;;18.40;99.90;;;;;;5037382;28;20107;-76
2021/09/03 08:09:36;;;;;;;14.35;8.35;;;18.50;99.90;;;;;;5045246;28;20029;-76
2021/09/03 08:12:02;;;;;;;17.17;8.95;;;18.70;99.90;;;;;;5040066;28;20033;-76
2021/09/03 08:14:28;;;;;;;14.82;8.45;;;18.70;99.90;;;;;;5041902;28;20057;-75
2021/09/03 08:16:54;;;;;;;13.77;8.70;;;18.70;99.90;;;;;;5035529;28;20029;-75
2021/09/03 08:19:19;;;;;;;11.45;7.72;;;18.60;99.90;;;;;;5038287;28;20490;-76
2021/09/03 08:21:45;;;;;;;15.85;9.65;;;18.70;99.90;;;;;;5044897;28;20061;-76
2021/09/03 08:24:11;;;;;;;13.98;9.13;;;18.70;99.90;;;;;;5042105;28;20056;-76
2021/09/03 08:26:38;;;;;;;16.90;7.20;;;18.80;99.90;;;;;;5036419;28;20025;-76
2021/09/03 08:29:04;;;;;;;14.95;7.32;;;19.00;99.90;;;;;;5039562;28;20376;-76
2021/09/03 08:31:30;;;;;;;13.68;7.30;;;18.90;99.90;;;;;;5038097;28;20029;-75
2021/09/03 08:33:55;;;;;;;13.45;6.30;;;19.00;99.90;;;;;;5062454;28;20150;-76
2021/09/03 08:36:21;;;;;;;12.13;7.60;;;19.00;99.90;;;;;;5049121;28;20037;-76
2021/09/03 08:38:47;;;;;;;10.55;6.50;;;19.00;99.80;;;;;;5049296;28;20036;-76
2021/09/03 08:41:16;;;;;;;9.38;5.75;;;19.20;99.90;;;;;;5040839;28;20620;-76
2021/09/03 08:43:42;;;;;;;12.63;5.60;;;19.30;99.90;;;;;;5044938;28;20030;-76
2021/09/03 08:46:08;;;;;;;10.05;6.03;;;19.40;99.70;;;;;;5037103;28;20033;-75
2021/09/03 08:48:35;;;;;;;16.70;6.65;;;19.20;99.20;;;;;;5063039;28;20035;-75
2021/09/03 08:51:01;;;;;;;13.35;5.68;;;19.20;99.50;;;;;;5037228;28;20033;-76
2021/09/03 08:53:27;;;;;;;10.27;5.45;;;19.30;99.80;;;;;;5048480;28;20040;-75
2021/09/03 08:55:54;;;;;;;15.77;5.40;;;19.20;99.70;;;;;;5042259;28;20034;-75
2021/09/03 08:58:20;;;;;;;11.32;5.15;;;19.40;99.20;;;;;;5042000;28;20037;-76
2021/09/03 09:01:12;;;;;;;11.38;5.60;;;19.60;99.60;;;;;;5046323;28;20120;-75
2021/09/03 09:03:40;;;;;;;8.98;5.00;;;19.50;99.30;;;;;;5029387;28;20619;-76
2021/09/03 09:06:07;;;;;;;8.05;5.28;;;19.70;99.20;;;;;;5041505;28;20029;-75
2021/09/03 09:08:35;;;;;;;16.55;5.10;;;19.90;99.00;;;;;;5046595;28;20194;-76
2021/09/03 09:11:13;;;;;;;10.73;5.72;;;20.00;99.00;;;;;;5029668;28;20065;-76
2021/09/03 09:13:46;;;;;;;9.90;5.90;;;20.10;98.80;;;;;;5042690;28;20041;-75
2021/09/03 09:16:14;;;;;;;10.50;5.13;;;20.30;98.60;;;;;;5047121;28;20033;-75
2021/09/03 09:18:46;;;;;;;12.10;5.78;;;20.40;98.50;;;;;;5045508;28;20483;-76
2021/09/03 09:21:14;;;;;;;;;;;20.30;98.50;;;;;;5038183;28;20033;-76
2021/09/03 09:23:46;;;;;;;17.02;5.85;;;20.30;98.70;;;;;;5042740;28;20543;-76
2021/09/03 09:26:13;;;;;;;14.65;4.82;;;20.30;98.60;;;;;;5048236;28;20029;-76
2021/09/03 09:28:39;;;;;;;9.20;4.55;;;20.40;98.20;;;;;;5048042;28;20036;-76
2021/09/03 09:31:05;;;;;;;11.15;4.68;;;20.40;98.30;;;;;;5046796;28;20037;-76
2021/09/03 09:33:31;;;;;;;13.20;6.00;;;20.50;98.40;;;;;;5059294;28;20117;-76
2021/09/03 09:35:59;;;;;;;13.40;5.18;;;20.60;98.10;;;;;;5048703;28;20112;-76
2021/09/03 09:38:33;;;;;;;11.05;5.28;;;20.60;97.80;;;;;;5042734;28;20141;-76
2021/09/03 09:41:06;;;;;;;12.50;4.85;;;20.60;97.90;;;;;;5044651;28;20382;-78
2021/09/03 09:43:33;;;;;;;10.98;4.95;;;20.70;97.80;;;;;;5048563;28;20029;-75
2021/09/03 09:46:23;;;;;;;12.93;5.35;;;20.60;97.70;;;;;;5046878;28;20112;-75
2021/09/03 09:48:49;;;;;;;12.40;5.30;;;20.50;97.40;;;;;;5044192;28;20033;-75
2021/09/03 09:51:44;;;;;;;10.98;4.63;;;20.50;97.70;;;;;;5048226;28;20560;-75
2021/09/03 09:54:24;;;;;;;14.05;5.25;;;20.60;97.70;;;;;;5044310;28;20037;-75
2021/09/03 09:56:56;;;;;;;10.57;4.75;;;20.70;97.90;;;;;;5045718;28;20029;-75
2021/09/03 09:59:23;;;;;;;10.98;4.70;;;20.50;97.90;;;;;;5046900;28;20044;-75
2021/09/03 10:01:52;;;;;;;11.68;4.95;;;20.50;97.90;;;;;;5039637;28;20064;-75
2021/09/03 10:04:20;;;;;;;9.15;5.28;;;20.40;98.20;;;;;;5040480;28;20041;-75
2021/09/03 10:06:50;;;;;;;8.75;4.93;;;20.30;97.80;;;;;;5036970;28;20013;-75
2021/09/03 10:09:18;;;;;;;9.00;4.35;;;20.30;98.30;;;;;;5052058;28;20537;-75
2021/09/03 10:11:46;;;;;;;10.80;4.75;;;20.20;98.00;;;;;;5042657;28;20013;-75
2021/09/03 10:14:18;;;;;;;11.32;4.90;;;20.20;98.20;;;;;;5051441;28;20048;-75
2021/09/03 10:16:48;;;;;;;9.27;4.78;;;20.40;98.30;;;;;;5039952;28;20025;-75
2021/09/03 10:19:17;;;;;;;10.25;4.32;;;20.50;98.20;;;;;;5048414;28;20028;-75
2021/09/03 10:21:43;;;;;;;12.18;4.75;;;20.50;97.70;;;;;;5034343;28;20061;-75
2021/09/03 10:24:14;;;;;;;12.02;4.80;;;20.40;98.40;;;;;;5049621;28;20037;-75
2021/09/03 10:26:43;;;;;;;19.98;6.38;;;20.50;98.80;;;;;;5045704;28;20021;-75
2021/09/03 10:29:27;;;;;;;10.88;5.70;;;20.60;98.70;;;;;;5051622;28;20033;-75
2021/09/03 10:32:07;;;;;;;12.88;5.03;;;20.70;98.50;;;;;;5040269;28;20076;-75
2021/09/03 10:34:49;;;;;;;14.38;4.90;;;20.70;98.00;;;;;;5047053;28;20144;-75
2021/09/03 10:37:18;;;;;;;18.60;6.25;;;20.70;98.40;;;;;;5052786;28;20052;-75
2021/09/03 10:40:06;;;;;;;10.02;5.07;;;20.80;98.70;;;;;;5057457;28;20073;-75
2021/09/03 10:42:35;;;;;;;12.00;5.38;;;20.90;98.10;;;;;;5051141;28;20028;-75
2021/09/03 10:45:08;;;;;;;10.40;4.80;;;20.70;98.10;;;;;;5046815;28;20134;-75
2021/09/03 10:47:46;;;;;;;11.25;5.30;;;21.00;98.40;;;;;;5031049;28;20025;-75
2021/09/03 10:50:34;;;;;;;18.00;5.47;;;21.00;98.30;;;;;;5036387;28;20112;-75
2021/09/03 10:53:03;;;;;;;13.02;5.25;;;21.30;98.10;;;;;;5045185;28;20025;-75
2021/09/03 10:56:10;;;;;;;9.50;5.57;;;21.40;98.20;;;;;;5032842;28;20037;-75
2021/09/03 10:58:41;;;;;;;10.32;4.90;;;21.70;97.90;;;;;;4968005;28;20049;-75
2021/09/03 11:01:09;;;;;;;12.85;5.47;;;21.80;97.20;;;;;;4953189;28;20044;-75
2021/09/03 11:03:36;;;;;;;12.10;4.85;;;21.80;97.10;;;;;;5008602;28;20056;-75
2021/09/03 11:06:02;;;;;;;10.75;5.50;;;21.80;97.30;;;;;;5044952;28;20038;-75
2021/09/03 11:08:38;;;;;;;16.10;5.53;;;21.50;97.00;;;;;;5044321;28;20126;-75
2021/09/03 11:11:33;;;;;;;9.80;4.90;;;21.50;97.20;;;;;;5047054;28;20083;-75
2021/09/03 11:14:01;;;;;;;12.90;4.80;;;21.60;96.80;;;;;;5046975;28;20111;-75
2021/09/03 11:16:34;;;;;;;12.15;5.00;;;21.60;96.90;;;;;;5050653;28;20386;-75
2021/09/03 11:19:05;;;;;;;11.07;5.05;;;21.70;97.20;;;;;;5042371;28;20029;-75
2021/09/03 11:21:36;;;;;;;11.43;6.05;;;21.90;96.80;;;;;;5051503;28;20623;-75
2021/09/03 11:24:03;;;;;;;11.43;4.60;;;21.90;96.80;;;;;;5038656;28;20030;-75
2021/09/03 11:26:30;;;;;;;11.43;4.80;;;21.80;96.50;;;;;;5037699;28;20414;-75
2021/09/03 11:28:57;;;;;;;9.82;4.88;;;21.90;96.60;;;;;;5045056;28;20489;-76
2021/09/03 11:31:23;;;;;;;10.93;4.88;;;22.00;96.60;;;;;;5047252;28;20057;-76
2021/09/03 11:33:49;;;;;;;10.70;4.82;;;22.20;96.50;;;;;;5042720;28;20071;-75
2021/09/03 11:36:15;;;;;;;10.52;5.18;;;22.20;96.20;;;;;;5038927;28;20033;-75
2021/09/03 11:38:41;;;;;;;8.75;4.05;;;22.40;95.70;;;;;;5034869;28;20076;-75
2021/09/03 11:41:10;;;;;;;12.10;5.05;;;22.30;96.60;;;;;;5049024;28;20051;-75
2021/09/03 11:43:37;;;;;;;10.48;4.65;;;22.20;96.60;;;;;;5048682;28;20033;-75
2021/09/03 11:46:23;;;;;;;11.38;5.03;;;22.20;96.20;;;;;;5057131;28;20035;-76
2021/09/03 11:48:49;;;;;;;10.10;4.75;;;22.20;96.20;;;;;;5049854;28;20355;-75
2021/09/03 11:51:21;;;;;;;9.07;4.55;;;22.20;95.80;;;;;;5042614;28;20033;-76
2021/09/03 11:53:48;;;;;;;20.35;4.93;;;22.40;95.90;;;;;;5038629;28;20033;-75
2021/09/03 11:56:16;;;;;;;9.60;4.70;;;22.40;95.90;;;;;;5036534;28;20048;-76
2021/09/03 11:58:42;;;;;;;10.27;4.63;;;22.50;95.30;;;;;;5043377;28;20033;-75
2021/09/03 12:01:08;;;;;;;9.00;4.68;;;22.30;95.90;;;;;;5040034;28;20797;-75
2021/09/03 12:03:37;;;;;;;8.07;4.70;;;22.60;95.50;;;;;;5040553;28;20386;-76
2021/09/03 12:06:06;;;;;;;12.18;4.70;;;22.70;95.50;;;;;;5036454;28;20075;-75
2021/09/03 12:08:37;;;;;;;13.50;4.57;;;22.90;95.30;;;;;;5050382;28;20025;-75
2021/09/03 12:11:09;;;;;;;14.93;4.87;;;23.00;94.20;;;;;;5048819;28;20037;-75
2021/09/03 12:13:54;;;;;;;12.25;4.57;;;22.80;94.30;;;;;;5042426;28;20045;-76
2021/09/03 12:16:22;;;;;;;9.50;4.10;;;22.80;95.20;;;;;;5045052;28;20127;-75
2021/09/03 12:18:58;;;;;;;11.77;4.00;;;23.10;95.20;;;;;;5048394;28;20396;-75
2021/09/03 12:21:30;;;;;;;13.95;4.82;;;23.30;94.40;;;;;;5044478;28;20029;-75
2021/09/03 12:23:58;;;;;;;;;;;23.20;94.50;;;;;;5044823;28;20051;-75
2021/09/03 12:26:38;;;;;;;6.63;4.10;;;23.10;94.20;;;;;;5040546;28;19912;-75
2021/09/03 12:29:08;;;;;;;9.15;4.55;;;23.10;94.10;;;;;;5046414;28;20108;-76
2021/09/03 12:31:34;;;;;;;10.38;4.70;;;23.10;94.40;;;;;;5047069;28;20029;-76
2021/09/03 12:34:02;;;;;;;7.13;3.67;;;23.00;94.30;;;;;;5035518;28;20947;-76
2021/09/03 12:36:31;;;;;;;7.60;4.20;;;23.40;94.60;;;;;;5043245;28;20033;-76
2021/09/03 12:38:59;;;;;;;6.72;4.43;;;23.60;93.90;;;;;;5049070;28;20070;-75
2021/09/03 12:41:33;;;;;;;7.88;4.43;;;23.50;93.50;;;;;;5045828;28;20032;-75
2021/09/03 12:44:08;;;;;;;8.73;4.50;;;23.30;93.70;;;;;;5048588;28;20080;-75